createdAt,value
2022-07-25T00:03:11.585Z,1003.092
2022-07-25T00:23:08.043Z,1002.946
2022-07-25T00:43:07.900Z,1002.821
2022-07-25T01:03:08.944Z,1002.715
2022-07-25T01:23:07.963Z,1002.377
2022-07-25T01:43:07.865Z,1002.316
2022-07-25T02:03:08.732Z,1002.073
2022-07-25T02:23:07.697Z,1001.868
2022-07-25T02:43:07.677Z,1001.799
2022-07-25T03:03:08.720Z,1001.657
2022-07-25T03:23:07.637Z,1001.55
2022-07-25T03:43:07.597Z,1001.28
2022-07-25T04:03:08.459Z,1001.049
2022-07-25T04:23:07.210Z,1000.853
2022-07-25T04:43:07.623Z,1000.687
2022-07-25T05:03:08.532Z,1000.476
2022-07-25T05:23:07.301Z,1000.409
2022-07-25T05:43:07.476Z,1000.251
2022-07-25T06:03:08.839Z,1000.154
2022-07-25T06:23:07.899Z,1000.072
2022-07-25T06:43:07.764Z,999.888
2022-07-25T07:03:08.841Z,999.775
2022-07-25T07:23:09.181Z,999.542
2022-07-25T07:43:08.094Z,999.411
2022-07-25T08:03:09.220Z,999.249
2022-07-25T08:23:08.188Z,999.028
2022-07-25T08:43:08.144Z,998.892
2022-07-25T09:03:09.418Z,998.899
2022-07-25T09:23:07.336Z,998.818
2022-07-25T09:43:07.238Z,998.898
2022-07-25T10:03:09.465Z,998.927
2022-07-25T10:23:07.382Z,998.907
2022-07-25T10:43:07.222Z,998.876
2022-07-25T11:03:09.198Z,998.712
2022-07-25T11:23:08.179Z,998.83
2022-07-25T11:43:08.214Z,998.675
2022-07-25T12:03:10.622Z,998.67
2022-07-25T12:23:08.187Z,998.688
2022-07-25T12:43:08.188Z,998.535
2022-07-25T13:03:08.169Z,998.605
2022-07-25T13:23:08.145Z,998.602
2022-07-25T13:43:08.295Z,998.781
2022-07-25T14:03:08.343Z,998.703
2022-07-25T14:23:07.249Z,998.838
2022-07-25T14:43:07.256Z,998.836
2022-07-25T15:03:08.308Z,999.011
2022-07-25T15:23:08.146Z,999.084
2022-07-25T15:43:08.206Z,999.463
2022-07-25T16:03:08.249Z,999.467
2022-07-25T16:23:08.114Z,999.593
2022-07-25T16:43:08.209Z,999.969
2022-07-25T17:03:09.188Z,1000.354
2022-07-25T17:23:08.084Z,1000.587
2022-07-25T17:43:08.169Z,1000.521
2022-07-25T18:03:09.571Z,1000.592
2022-07-25T18:23:07.622Z,1000.686
2022-07-25T18:43:11.172Z,1000.887
2022-07-25T19:03:09.097Z,1001.024
2022-07-25T19:23:08.129Z,1001.301
2022-07-25T19:43:08.247Z,1001.557
2022-07-25T20:03:08.644Z,1001.88
2022-07-25T20:23:07.349Z,1002.149
2022-07-25T20:43:07.500Z,1002.236
2022-07-25T21:03:09.112Z,1002.304
2022-07-25T21:23:08.200Z,1002.555
2022-07-25T21:43:13.669Z,1002.722
2022-07-25T22:03:08.767Z,1002.774
2022-07-25T22:23:07.667Z,1002.897
2022-07-25T22:43:07.417Z,1003.142
2022-07-25T23:03:08.708Z,1003.293
2022-07-25T23:23:07.729Z,1003.216
2022-07-25T23:43:07.986Z,1003.326
